Time;durP1;ratioP1;P1;durP2;ratioP2;P2;SDS_P1;SDS_P2;PMS_P1;PMS_P2;Temp;Humidity;BMP_temperature;BMP_pressure;BME280_temperature;BME280_humidity;BME280_pressure;Samples;Min_cycle;Max_cycle;Signal;HPM_P1;HPM_P2
2021/05/18 00:00:29;;;;;;;0.53;0.40;;;13.10;99.90;;;;;;4153620;28;20075;-66
2021/05/18 00:02:30;;;;;;;0.80;0.30;;;13.00;99.90;;;;;;4154809;28;20563;-61
2021/05/18 00:04:31;;;;;;;1.83;0.30;;;13.00;99.90;;;;;;4154471;28;20088;-60
2021/05/18 00:06:32;;;;;;;2.20;0.40;;;13.00;99.90;;;;;;4155201;28;20034;-61
2021/05/18 00:11:42;;;;;;;0.80;0.47;;;13.00;99.90;;;;;;4154470;28;20464;-62
2021/05/18 00:13:25;;;;;;;0.50;0.30;;;12.90;99.90;;;;;;4154924;28;20452;-61
2021/05/18 00:15:27;;;;;;;0.87;0.30;;;12.90;99.90;;;;;;4154929;28;20080;-61
2021/05/18 00:17:28;;;;;;;0.57;0.27;;;12.90;99.90;;;;;;4154519;28;20092;-61
2021/05/18 00:19:30;;;;;;;0.43;0.30;;;12.90;99.90;;;;;;4155007;28;20107;-61
2021/05/18 00:21:32;;;;;;;0.33;0.23;;;12.90;99.90;;;;;;4153676;28;20063;-62
2021/05/18 00:23:34;;;;;;;0.77;0.53;;;12.90;99.90;;;;;;4139917;28;20030;-61
2021/05/18 00:25:35;;;;;;;1.20;1.10;;;12.90;99.90;;;;;;4137907;28;20540;-62
2021/05/18 00:27:36;;;;;;;1.33;1.10;;;12.80;99.90;;;;;;4139522;28;20042;-62
2021/05/18 00:29:37;;;;;;;1.77;1.40;;;12.80;99.90;;;;;;4137762;28;20049;-62
2021/05/18 00:31:38;;;;;;;2.53;2.17;;;12.70;99.90;;;;;;4141660;28;20045;-62
2021/05/18 00:33:42;;;;;;;5.03;2.93;;;12.70;99.90;;;;;;4153823;28;20075;-61
2021/05/18 00:35:44;;;;;;;3.47;1.30;;;12.80;99.90;;;;;;4154333;28;20049;-63
2021/05/18 00:37:45;;;;;;;1.67;1.10;;;12.80;99.90;;;;;;4157447;28;20049;-61
2021/05/18 00:39:47;;;;;;;1.93;1.43;;;12.80;99.90;;;;;;4159019;28;20029;-63
2021/05/18 00:41:48;;;;;;;1.23;0.83;;;12.80;99.90;;;;;;4155641;28;20045;-62
2021/05/18 00:43:50;;;;;;;0.53;0.50;;;12.80;99.90;;;;;;4158340;28;20033;-60
2021/05/18 00:45:52;;;;;;;1.47;0.80;;;12.80;99.90;;;;;;4157580;28;20051;-61
2021/05/18 00:47:53;;;;;;;1.10;0.90;;;12.80;99.90;;;;;;4157993;28;20668;-63
2021/05/18 00:49:54;;;;;;;1.30;0.33;;;12.80;99.90;;;;;;4158045;28;20443;-61
2021/05/18 00:51:55;;;;;;;3.40;1.30;;;12.80;99.90;;;;;;4156508;28;20034;-61
2021/05/18 00:53:59;;;;;;;0.87;0.60;;;12.80;99.90;;;;;;4158735;28;20049;-61
2021/05/18 00:56:07;;;;;;;1.13;0.57;;;12.70;99.90;;;;;;4157023;28;20029;-61
2021/05/18 00:58:27;;;;;;;0.67;0.37;;;12.60;99.90;;;;;;4156742;28;20183;-61
2021/05/18 01:00:28;;;;;;;1.35;0.40;;;12.60;99.90;;;;;;4155160;28;20041;-62
2021/05/18 01:02:29;;;;;;;2.73;0.57;;;12.50;99.90;;;;;;4158520;28;20099;-61
2021/05/18 01:04:31;;;;;;;1.40;0.20;;;12.50;99.90;;;;;;4157282;28;20034;-62
2021/05/18 01:06:33;;;;;;;0.63;0.20;;;12.40;99.90;;;;;;4158445;28;20091;-59
2021/05/18 01:08:35;;;;;;;1.27;0.40;;;12.30;99.90;;;;;;4156640;28;20029;-61
2021/05/18 01:10:36;;;;;;;0.77;0.40;;;12.30;99.90;;;;;;4158758;28;20444;-61
2021/05/18 01:12:37;;;;;;;1.03;0.40;;;12.20;99.90;;;;;;4156764;28;20037;-61
2021/05/18 01:14:38;;;;;;;1.27;0.20;;;12.20;99.90;;;;;;4157964;28;20484;-61
2021/05/18 01:16:43;;;;;;;2.00;0.30;;;12.20;99.90;;;;;;4156995;28;20034;-62
2021/05/18 01:18:47;;;;;;;0.60;0.20;;;12.10;99.90;;;;;;4157687;28;20372;-63
2021/05/18 01:20:59;;;;;;;1.10;0.40;;;12.10;99.90;;;;;;4157025;28;20406;-62
2021/05/18 01:23:00;;;;;;;0.40;0.30;;;12.10;99.90;;;;;;4157313;28;20300;-62
2021/05/18 01:25:03;;;;;;;0.57;0.43;;;12.10;99.90;;;;;;4156830;28;20025;-62
2021/05/18 01:27:05;;;;;;;5.00;0.70;;;12.10;99.90;;;;;;4157896;28;20025;-64
2021/05/18 01:29:07;;;;;;;2.13;0.70;;;12.10;99.90;;;;;;4156719;28;20092;-62
2021/05/18 01:31:10;;;;;;;2.10;0.70;;;12.00;99.90;;;;;;4156905;28;20029;-70
2021/05/18 01:33:12;;;;;;;5.83;1.70;;;12.00;99.90;;;;;;4157178;28;20548;-61
2021/05/18 01:35:14;;;;;;;4.33;1.00;;;12.00;99.90;;;;;;4156649;28;20038;-61
2021/05/18 01:37:15;;;;;;;0.87;0.60;;;12.00;99.90;;;;;;4156771;28;20080;-62
2021/05/18 01:43:38;;;;;;;1.98;0.70;;;11.90;99.90;;;;;;4156235;28;20029;-63
2021/05/18 01:45:41;;;;;;;1.40;0.40;;;11.90;99.90;;;;;;4157898;28;20029;-62
2021/05/18 01:47:49;;;;;;;7.40;0.90;;;11.90;99.90;;;;;;4155055;28;20025;-60
2021/05/18 01:49:50;;;;;;;0.73;0.50;;;11.90;99.90;;;;;;4157474;28;20088;-62
2021/05/18 01:51:57;;;;;;;2.90;0.40;;;11.80;99.90;;;;;;4156312;28;20551;-62
2021/05/18 01:54:03;;;;;;;4.63;0.70;;;11.70;99.90;;;;;;4157734;28;20077;-62
2021/05/18 01:58:12;;;;;;;2.93;0.70;;;11.60;99.90;;;;;;4157859;28;20083;-61
2021/05/18 02:00:21;;;;;;;2.60;0.40;;;11.50;99.90;;;;;;4155603;28;20091;-61
2021/05/18 02:02:22;;;;;;;1.83;0.50;;;11.50;99.90;;;;;;4156899;28;20049;-71
2021/05/18 02:04:32;;;;;;;5.63;0.60;;;11.50;99.90;;;;;;4155555;28;20100;-62
2021/05/18 02:06:35;;;;;;;2.17;0.77;;;11.50;99.90;;;;;;4157936;28;20033;-70
2021/05/18 02:08:36;;;;;;;6.10;0.90;;;11.50;99.90;;;;;;4156064;28;20022;-67
2021/05/18 02:10:39;;;;;;;2.73;1.20;;;11.60;99.90;;;;;;4156827;28;20515;-65
2021/05/18 02:12:40;;;;;;;2.37;1.23;;;11.60;99.90;;;;;;4156050;28;20037;-64
2021/05/18 02:14:45;;;;;;;1.20;1.07;;;11.60;99.90;;;;;;4156961;28;20029;-69
2021/05/18 02:16:46;;;;;;;1.90;1.10;;;11.70;99.90;;;;;;4156082;28;20025;-69
2021/05/18 02:25:29;;;;;;;1.27;0.90;;;11.70;99.90;;;;;;4156303;28;20460;-63
2021/05/18 02:27:31;;;;;;;1.17;1.00;;;11.60;99.90;;;;;;4156328;28;20095;-76
2021/05/18 02:29:32;;;;;;;2.10;1.10;;;11.60;99.90;;;;;;4156069;28;20425;-70
2021/05/18 02:31:34;;;;;;;2.90;1.20;;;11.50;99.90;;;;;;4155720;28;20478;-70
2021/05/18 02:33:35;;;;;;;2.33;1.47;;;11.50;99.90;;;;;;4156257;28;20083;-69
2021/05/18 02:35:36;;;;;;;8.47;0.93;;;11.50;99.90;;;;;;4155247;28;20444;-62
2021/05/18 02:37:39;;;;;;;1.10;0.93;;;11.50;99.90;;;;;;4156558;28;20030;-69
2021/05/18 02:39:40;;;;;;;2.63;1.27;;;11.40;99.90;;;;;;4155141;28;20033;-70
2021/05/18 02:41:42;;;;;;;1.30;1.20;;;11.40;99.90;;;;;;4157125;28;20029;-63
2021/05/18 02:50:12;;;;;;;2.13;0.82;;;11.40;99.90;;;;;;4156900;28;20551;-71
2021/05/18 02:52:13;;;;;;;3.60;0.50;;;11.40;99.90;;;;;;4155416;28;20374;-70
2021/05/18 02:54:19;;;;;;;1.73;0.80;;;11.40;99.90;;;;;;4156203;28;20029;-65
2021/05/18 02:56:35;;;;;;;1.27;1.00;;;11.30;99.90;;;;;;4155158;28;20474;-66
2021/05/18 02:58:38;;;;;;;2.53;0.90;;;11.40;99.90;;;;;;4156754;28;20138;-67
2021/05/18 03:00:40;;;;;;;1.67;1.17;;;11.40;99.90;;;;;;4153194;28;20474;-70
2021/05/18 03:02:42;;;;;;;1.70;1.07;;;11.40;99.90;;;;;;4153086;28;20483;-73
2021/05/18 03:04:43;;;;;;;1.70;1.20;;;11.40;99.90;;;;;;4154446;28;20486;-70
2021/05/18 03:06:47;;;;;;;1.47;1.13;;;11.40;99.90;;;;;;4156627;28;20071;-71
2021/05/18 03:08:49;;;;;;;2.33;1.10;;;11.40;99.90;;;;;;4154749;28;20627;-72
2021/05/18 03:10:50;;;;;;;3.00;1.20;;;11.40;99.90;;;;;;4150212;28;20045;-67
2021/05/18 03:12:51;;;;;;;1.33;0.90;;;11.30;99.90;;;;;;4154587;28;20785;-71
2021/05/18 03:14:52;;;;;;;2.27;1.20;;;11.30;99.90;;;;;;4155222;28;20485;-69
2021/05/18 03:16:53;;;;;;;1.57;1.47;;;11.30;99.90;;;;;;4156043;28;20063;-60
2021/05/18 03:18:55;;;;;;;2.47;1.30;;;11.30;99.90;;;;;;4154431;28;20053;-61
2021/05/18 03:20:57;;;;;;;1.10;1.00;;;11.30;99.90;;;;;;4155479;28;20160;-61
2021/05/18 03:22:58;;;;;;;1.53;1.20;;;11.30;99.90;;;;;;4154949;28;20432;-62
2021/05/18 03:24:59;;;;;;;1.63;1.37;;;11.30;99.90;;;;;;4156017;28;20041;-62
2021/05/18 03:27:00;;;;;;;2.30;1.50;;;11.30;99.90;;;;;;4154582;28;20033;-62
2021/05/18 03:29:12;;;;;;;1.63;1.20;;;11.30;99.90;;;;;;4155786;28;20111;-61
2021/05/18 03:35:35;;;;;;;2.85;0.90;;;11.30;99.90;;;;;;4153951;28;20100;-59
2021/05/18 03:39:38;;;;;;;2.13;1.60;;;11.30;99.90;;;;;;4154076;28;20768;-61
2021/05/18 03:41:54;;;;;;;3.43;1.50;;;11.30;99.90;;;;;;4152225;28;20034;-61
2021/05/18 03:44:02;;;;;;;1.60;1.50;;;11.30;99.90;;;;;;4137441;28;20030;-62
2021/05/18 03:48:42;;;;;;;1.57;1.43;;;11.30;99.90;;;;;;4138278;28;20478;-63
2021/05/18 04:04:36;;;;;;;1.30;1.20;;;11.40;99.90;;;;;;4154786;28;20551;-68
2021/05/18 04:22:27;;;;;;;2.80;1.10;;;11.40;99.90;;;;;;4159425;28;20083;-62
2021/05/18 04:52:00;;;;;;;13.63;1.50;;;11.50;99.90;;;;;;4161250;28;20163;-64
2021/05/18 05:00:53;;;;;;;1.37;1.20;;;11.60;99.90;;;;;;4160810;28;20080;-63
2021/05/18 05:07:28;;;;;;;1.30;1.13;;;11.50;99.90;;;;;;4159770;28;20068;-64
2021/05/18 05:09:42;;;;;;;2.73;1.90;;;11.50;99.90;;;;;;4158940;28;20470;-64
2021/05/18 05:14:14;;;;;;;1.13;1.00;;;11.60;99.90;;;;;;4158798;28;20071;-64
2021/05/18 05:16:15;;;;;;;1.00;0.83;;;11.60;99.90;;;;;;4159430;28;20092;-65
2021/05/18 05:18:16;;;;;;;1.37;1.23;;;11.60;99.90;;;;;;4158124;28;20037;-64
2021/05/18 05:20:17;;;;;;;3.83;1.10;;;11.60;99.90;;;;;;4158718;28;20100;-64
2021/05/18 05:22:18;;;;;;;7.60;1.80;;;11.60;99.90;;;;;;4157661;28;20460;-64
2021/05/18 05:24:20;;;;;;;5.97;1.50;;;11.60;99.90;;;;;;4155561;28;20041;-64
2021/05/18 05:26:21;;;;;;;5.70;2.57;;;11.60;99.90;;;;;;4157130;28;20050;-65
2021/05/18 05:28:22;;;;;;;3.10;1.37;;;11.70;99.90;;;;;;4155394;28;20091;-60
2021/05/18 05:30:24;;;;;;;5.03;1.93;;;11.70;99.90;;;;;;4156294;28;20083;-65
2021/05/18 05:32:25;;;;;;;7.37;1.20;;;11.70;99.90;;;;;;4155853;28;20041;-62
2021/05/18 05:34:26;;;;;;;3.10;1.10;;;11.70;99.90;;;;;;4157844;28;20029;-67
2021/05/18 05:36:28;;;;;;;5.40;2.07;;;11.80;99.90;;;;;;4155780;28;20042;-62
2021/05/18 05:38:30;;;;;;;11.77;1.90;;;11.80;99.90;;;;;;4157533;28;20041;-63
2021/05/18 05:40:32;;;;;;;6.00;2.00;;;11.80;99.90;;;;;;4156119;28;20144;-65
2021/05/18 05:42:33;;;;;;;6.53;1.67;;;11.80;99.90;;;;;;4156473;28;20091;-63
2021/05/18 05:44:35;;;;;;;6.80;1.83;;;11.80;99.90;;;;;;4156255;28;20091;-63
2021/05/18 05:46:36;;;;;;;3.73;1.23;;;11.90;99.90;;;;;;4156734;28;20079;-67
2021/05/18 05:48:37;;;;;;;4.33;1.30;;;11.90;99.90;;;;;;4156176;28;20151;-64
2021/05/18 05:50:38;;;;;;;6.93;1.67;;;11.90;99.90;;;;;;4156211;28;20052;-64
2021/05/18 05:52:40;;;;;;;0.97;0.97;;;11.90;99.90;;;;;;4156581;28;20037;-63
2021/05/18 05:54:41;;;;;;;3.13;0.70;;;11.90;99.90;;;;;;4156257;28;20099;-63
2021/05/18 05:56:42;;;;;;;8.90;5.00;;;11.90;99.90;;;;;;4156694;28;20535;-63
2021/05/18 05:58:44;;;;;;;1.80;1.60;;;12.00;99.90;;;;;;4155594;28;20049;-63
2021/05/18 06:00:45;;;;;;;1.50;1.07;;;12.00;99.90;;;;;;4156468;28;20151;-62
2021/05/18 06:02:47;;;;;;;0.90;0.87;;;12.00;99.90;;;;;;4154879;28;20045;-63
2021/05/18 06:04:48;;;;;;;1.10;1.00;;;12.00;99.90;;;;;;4157098;28;20539;-63
2021/05/18 06:06:49;;;;;;;1.20;1.10;;;12.10;99.90;;;;;;4155018;28;20107;-62
2021/05/18 06:08:50;;;;;;;3.13;1.10;;;12.10;99.90;;;;;;4157228;28;20061;-65
2021/05/18 06:11:01;;;;;;;2.57;1.10;;;12.20;99.90;;;;;;4155263;28;20405;-62
2021/05/18 06:17:45;;;;;;;6.07;1.00;;;12.30;99.90;;;;;;4157122;28;20037;-63
2021/05/18 06:43:08;;;;;;;0.90;0.50;;;13.90;99.90;;;;;;4156434;28;20560;-63
2021/05/18 06:49:35;;;;;;;10.87;1.63;;;14.00;99.90;;;;;;4155286;28;20034;-63
2021/05/18 06:51:36;;;;;;;0.50;0.50;;;13.90;99.90;;;;;;4155905;28;20037;-62
2021/05/18 06:53:37;;;;;;;1.33;0.73;;;14.00;99.90;;;;;;4154982;28;20055;-62
2021/05/18 06:55:39;;;;;;;2.57;0.90;;;14.00;99.90;;;;;;4155442;28;20445;-62
2021/05/18 06:57:44;;;;;;;3.07;1.53;;;14.00;99.90;;;;;;4155239;28;20095;-62
2021/05/18 07:02:05;;;;;;;2.37;1.03;;;14.30;99.90;;;;;;4155373;28;20073;-69
2021/05/18 07:04:08;;;;;;;9.43;1.67;;;14.50;99.90;;;;;;4155128;28;20095;-72
2021/05/18 07:10:15;;;;;;;5.83;1.77;;;14.70;99.90;;;;;;4156511;28;20103;-63
2021/05/18 07:12:16;;;;;;;12.00;2.10;;;14.80;99.90;;;;;;4154571;28;20543;-69
2021/05/18 07:14:17;;;;;;;4.13;1.30;;;14.80;99.90;;;;;;4155654;28;20095;-60
2021/05/18 07:16:18;;;;;;;1.93;1.30;;;14.90;99.90;;;;;;4154511;28;20052;-63
2021/05/18 07:18:21;;;;;;;7.03;1.80;;;14.90;99.90;;;;;;4156089;28;20037;-62
2021/05/18 07:20:23;;;;;;;5.78;1.00;;;14.90;99.90;;;;;;4152190;28;20131;-62
2021/05/18 07:22:24;;;;;;;3.57;0.97;;;14.90;99.90;;;;;;4156009;28;20841;-62
2021/05/18 07:24:29;;;;;;;3.60;0.90;;;14.90;99.90;;;;;;4153652;28;20064;-62
2021/05/18 07:26:31;;;;;;;2.63;1.03;;;15.00;99.90;;;;;;4154959;28;20033;-62
2021/05/18 07:28:33;;;;;;;1.87;1.17;;;15.10;99.90;;;;;;4153959;28;20037;-62
2021/05/18 07:30:39;;;;;;;1.10;0.60;;;15.30;99.90;;;;;;4155236;28;20109;-64
2021/05/18 07:32:40;;;;;;;8.73;1.20;;;15.50;99.90;;;;;;4154589;28;20026;-62
2021/05/18 07:34:41;;;;;;;9.63;1.52;;;15.70;99.90;;;;;;4155370;28;20029;-62
2021/05/18 07:36:42;;;;;;;5.87;1.07;;;15.70;99.90;;;;;;4154415;28;20394;-61
2021/05/18 07:38:48;;;;;;;6.53;0.50;;;15.60;99.90;;;;;;4154678;28;20107;-62
2021/05/18 07:40:49;;;;;;;2.13;0.40;;;15.60;99.90;;;;;;4155490;28;20033;-62
2021/05/18 07:42:53;;;;;;;2.95;0.50;;;15.70;99.90;;;;;;4153539;28;20092;-64
2021/05/18 07:44:54;;;;;;;2.35;0.40;;;15.70;99.90;;;;;;4154711;28;20033;-62
2021/05/18 07:46:56;;;;;;;4.82;0.60;;;15.60;99.90;;;;;;4153500;28;20037;-63
2021/05/18 07:51:16;;;;;;;0.88;0.25;;;15.50;99.90;;;;;;4154336;28;20033;-63
2021/05/18 08:00:38;;;;;;;0.50;0.20;;;15.20;99.90;;;;;;4154307;28;20115;-65
2021/05/18 08:05:18;;;;;;;1.55;0.20;;;14.90;99.90;;;;;;4155195;28;20091;-62
2021/05/18 08:07:20;;;;;;;1.55;0.10;;;14.60;99.90;;;;;;4153971;28;20324;-63
2021/05/18 08:09:23;;;;;;;0.73;0.10;;;14.50;99.90;;;;;;4154048;28;20041;-62
2021/05/18 08:11:25;;;;;;;0.20;0.10;;;14.30;99.90;;;;;;4153851;28;20099;-64
2021/05/18 08:13:26;;;;;;;1.90;0.10;;;14.30;99.90;;;;;;4152669;28;20092;-62
2021/05/18 10:36:01;;;;;;;1.37;0.27;;;13.40;99.90;;;;;;4154948;28;20037;-62
2021/05/18 10:38:06;;;;;;;0.57;0.10;;;13.30;99.90;;;;;;4156191;28;20091;-61
2021/05/18 10:40:22;;;;;;;0.87;0.30;;;13.30;99.90;;;;;;4155732;28;20037;-63
2021/05/18 10:42:24;;;;;;;0.10;0.07;;;13.30;99.90;;;;;;4155067;28;20037;-66
2021/05/18 10:44:25;;;;;;;3.70;0.20;;;13.30;99.90;;;;;;4155024;28;20037;-65
2021/05/18 10:46:28;;;;;;;1.60;0.87;;;13.40;99.90;;;;;;4155432;28;20099;-62
2021/05/18 10:48:34;;;;;;;1.20;0.20;;;13.40;99.90;;;;;;4153875;28;20054;-65
2021/05/18 10:50:41;;;;;;;5.20;0.30;;;13.40;99.90;;;;;;4156126;28;20021;-64
2021/05/18 10:52:45;;;;;;;0.30;0.13;;;13.30;99.90;;;;;;4154394;28;20029;-62
2021/05/18 10:54:59;;;;;;;0.67;0.23;;;13.30;99.90;;;;;;4155806;28;20049;-63
2021/05/18 10:57:03;;;;;;;0.57;0.20;;;13.20;99.90;;;;;;4154499;28;20029;-63
2021/05/18 10:59:17;;;;;;;1.07;0.20;;;13.20;99.90;;;;;;4155857;28;20103;-61
2021/05/18 11:01:18;;;;;;;5.87;0.47;;;13.20;99.90;;;;;;4154209;28;20053;-62
2021/05/18 11:03:19;;;;;;;8.63;0.70;;;13.10;99.90;;;;;;4156292;28;20096;-61
2021/05/18 11:05:22;;;;;;;0.80;0.20;;;13.10;99.90;;;;;;4154322;28;20033;-61
2021/05/18 11:07:29;;;;;;;2.67;0.23;;;13.00;99.90;;;;;;4155862;28;20045;-61
2021/05/18 11:09:31;;;;;;;0.73;0.20;;;13.00;99.90;;;;;;4154346;28;20033;-62
2021/05/18 11:11:34;;;;;;;2.60;0.30;;;12.90;99.90;;;;;;4156296;28;20033;-62
2021/05/18 11:13:35;;;;;;;1.57;0.10;;;12.90;99.90;;;;;;4153877;28;20497;-65
2021/05/18 11:15:36;;;;;;;1.43;0.10;;;12.90;99.90;;;;;;4155960;28;20063;-62
2021/05/18 11:17:46;;;;;;;3.63;0.70;;;13.00;99.90;;;;;;4154699;28;20052;-65
2021/05/18 11:20:58;;;;;;;0.90;0.20;;;13.00;99.90;;;;;;4155177;28;20046;-64
2021/05/18 11:25:08;;;;;;;1.03;0.43;;;13.00;99.90;;;;;;4156029;28;20087;-62
2021/05/18 11:27:09;;;;;;;1.03;0.30;;;12.90;99.90;;;;;;4154267;28;20026;-62
2021/05/18 11:29:10;;;;;;;0.87;0.20;;;12.90;99.90;;;;;;4155415;28;20068;-62
2021/05/18 11:31:26;;;;;;;0.73;0.30;;;12.80;99.90;;;;;;4153850;28;20432;-64
2021/05/18 11:33:38;;;;;;;1.87;0.60;;;12.90;99.90;;;;;;4155104;28;20878;-61
2021/05/18 11:35:39;;;;;;;0.30;0.10;;;12.90;99.90;;;;;;4153908;28;20025;-62
2021/05/18 11:37:41;;;;;;;1.13;0.30;;;12.90;99.90;;;;;;4155432;28;20033;-62
2021/05/18 11:39:42;;;;;;;1.57;0.10;;;12.90;99.90;;;;;;4153965;28;20072;-63
2021/05/18 11:41:44;;;;;;;1.00;0.30;;;13.00;99.90;;;;;;4155767;28;20128;-62
2021/05/18 11:43:49;;;;;;;3.27;0.23;;;13.10;99.90;;;;;;4153709;28;20048;-61
2021/05/18 11:46:04;;;;;;;4.30;0.50;;;13.20;99.90;;;;;;4154780;28;20064;-65
2021/05/18 11:48:16;;;;;;;5.00;0.13;;;13.30;99.90;;;;;;4153672;28;20045;-63
2021/05/18 11:50:23;;;;;;;0.90;0.20;;;13.40;99.90;;;;;;4155178;28;20489;-62
2021/05/18 11:52:24;;;;;;;0.57;0.17;;;13.50;99.90;;;;;;4152236;28;20433;-65
2021/05/18 11:54:28;;;;;;;1.00;0.40;;;13.50;99.90;;;;;;4155257;28;20083;-64
2021/05/18 11:56:32;;;;;;;3.80;0.20;;;13.30;99.90;;;;;;4153901;28;20034;-62
2021/05/18 11:58:33;;;;;;;1.10;0.50;;;13.20;99.90;;;;;;4154660;28;20041;-65
2021/05/18 12:00:34;;;;;;;0.60;0.20;;;13.10;99.90;;;;;;4154158;28;20079;-65
2021/05/18 12:02:35;;;;;;;2.33;1.30;;;13.10;99.90;;;;;;4153807;28;20103;-66
2021/05/18 12:04:37;;;;;;;0.53;0.20;;;13.10;99.90;;;;;;4152412;28;20474;-69
2021/05/18 12:06:52;;;;;;;1.83;0.20;;;13.00;99.90;;;;;;4153957;28;20417;-65
2021/05/18 12:08:57;;;;;;;0.20;0.10;;;13.00;99.90;;;;;;4154424;28;20045;-63
2021/05/18 12:11:13;;;;;;;1.87;0.23;;;12.90;99.90;;;;;;4153915;28;20029;-62
2021/05/18 12:13:27;;;;;;;0.37;0.23;;;12.90;99.90;;;;;;4154824;28;20075;-62
2021/05/18 12:15:28;;;;;;;1.43;0.40;;;12.90;99.90;;;;;;4154183;28;20614;-62
2021/05/18 12:17:32;;;;;;;1.53;0.10;;;12.90;99.90;;;;;;4154474;28;20091;-62
2021/05/18 12:19:38;;;;;;;1.70;0.60;;;12.90;99.90;;;;;;4153955;28;20061;-64
2021/05/18 12:21:39;;;;;;;0.30;0.10;;;12.90;99.90;;;;;;4155102;28;20091;-62
2021/05/18 12:23:42;;;;;;;1.73;1.10;;;12.80;99.90;;;;;;4153686;28;20046;-62
2021/05/18 12:25:43;;;;;;;2.17;0.80;;;12.90;99.90;;;;;;4154680;28;20045;-61
2021/05/18 12:27:45;;;;;;;0.53;0.47;;;12.90;99.90;;;;;;4153472;28;20084;-66
2021/05/18 12:29:53;;;;;;;0.97;0.30;;;12.90;99.90;;;;;;4155532;28;20025;-61
2021/05/18 12:31:56;;;;;;;1.53;0.27;;;12.90;99.90;;;;;;4154744;28;20033;-64
2021/05/18 12:33:58;;;;;;;2.63;0.20;;;12.90;99.90;;;;;;4157563;28;20444;-61
2021/05/18 12:36:06;;;;;;;2.70;0.30;;;12.90;99.90;;;;;;4156778;28;20033;-64
2021/05/18 12:38:15;;;;;;;1.30;0.20;;;13.00;99.90;;;;;;4157990;28;20111;-63
2021/05/18 12:40:27;;;;;;;0.20;0.10;;;13.00;99.90;;;;;;4156808;28;20084;-62
2021/05/18 12:42:30;;;;;;;1.57;0.30;;;13.00;99.90;;;;;;4156793;28;20033;-64
2021/05/18 12:44:49;;;;;;;0.73;0.20;;;13.10;99.90;;;;;;4156487;28;20045;-64
2021/05/18 12:46:55;;;;;;;1.40;0.20;;;13.20;99.90;;;;;;4157892;28;20033;-63
2021/05/18 12:48:57;;;;;;;1.70;0.23;;;13.40;99.90;;;;;;4156707;28;20083;-62
2021/05/18 12:50:58;;;;;;;0.50;0.20;;;13.30;99.90;;;;;;4158131;28;20104;-61
2021/05/18 12:52:59;;;;;;;1.60;0.20;;;13.30;99.90;;;;;;4157084;28;20025;-63
2021/05/18 12:55:00;;;;;;;2.73;0.23;;;13.20;99.90;;;;;;4157865;28;20099;-67
2021/05/18 12:57:02;;;;;;;1.90;0.10;;;13.20;99.90;;;;;;4157085;28;20029;-62
2021/05/18 12:59:08;;;;;;;1.67;0.20;;;13.30;99.90;;;;;;4157353;28;20037;-62
2021/05/18 13:01:13;;;;;;;0.83;0.40;;;13.30;99.90;;;;;;4154628;28;20049;-62
2021/05/18 13:03:19;;;;;;;2.63;0.23;;;13.30;99.90;;;;;;4156827;28;20041;-64
2021/05/18 13:05:20;;;;;;;0.27;0.20;;;13.30;99.90;;;;;;4156246;28;20022;-65
2021/05/18 13:07:21;;;;;;;2.53;0.17;;;13.50;99.90;;;;;;4156495;28;20083;-62
2021/05/18 13:09:31;;;;;;;1.20;0.17;;;13.60;99.90;;;;;;4157311;28;20469;-62
2021/05/18 13:13:39;;;;;;;0.30;0.20;;;13.80;99.90;;;;;;4159674;28;20029;-65
2021/05/18 13:15:40;;;;;;;0.30;0.20;;;13.80;99.90;;;;;;4155827;28;20034;-65
2021/05/18 13:17:59;;;;;;;0.30;0.20;;;13.80;99.90;;;;;;4157482;28;20025;-64
2021/05/18 13:20:11;;;;;;;0.77;0.30;;;13.70;99.90;;;;;;4156132;28;20083;-65
2021/05/18 13:22:13;;;;;;;1.30;0.10;;;13.70;99.90;;;;;;4157052;28;20547;-62
2021/05/18 13:26:31;;;;;;;0.40;0.10;;;13.70;99.90;;;;;;4157921;28;20083;-63
2021/05/18 13:28:32;;;;;;;0.47;0.10;;;13.80;99.90;;;;;;4155655;28;20025;-63
2021/05/18 13:30:35;;;;;;;0.20;0.17;;;14.00;99.90;;;;;;4157690;28;20559;-62
2021/05/18 13:32:36;;;;;;;1.50;0.03;;;14.10;99.90;;;;;;4155317;28;20030;-61
2021/05/18 13:34:37;;;;;;;0.67;0.27;;;14.20;99.90;;;;;;4157308;28;20033;-63
2021/05/18 13:36:38;;;;;;;1.00;0.20;;;14.40;99.90;;;;;;4155092;28;20053;-63
2021/05/18 13:38:39;;;;;;;0.30;0.10;;;14.50;99.90;;;;;;4156853;28;20574;-61
2021/05/18 13:40:41;;;;;;;0.50;0.10;;;14.40;99.90;;;;;;4155490;28;20049;-62
2021/05/18 13:42:42;;;;;;;0.20;0.10;;;14.30;99.90;;;;;;4156826;28;20099;-62
2021/05/18 13:44:43;;;;;;;1.87;0.60;;;14.20;99.90;;;;;;4154897;28;20087;-61
2021/05/18 13:46:46;;;;;;;0.20;0.10;;;14.20;99.90;;;;;;4156503;28;20571;-65
2021/05/18 13:48:48;;;;;;;2.03;0.10;;;14.00;99.90;;;;;;4154790;28;20037;-62
2021/05/18 13:50:49;;;;;;;3.47;0.27;;;13.90;99.90;;;;;;4155498;28;20046;-62
2021/05/18 13:52:50;;;;;;;2.07;0.30;;;13.80;99.90;;;;;;4155712;28;20087;-61
2021/05/18 13:54:53;;;;;;;0.33;0.20;;;13.60;99.90;;;;;;4155129;28;20107;-64
2021/05/18 13:56:54;;;;;;;1.93;0.20;;;13.50;99.90;;;;;;4156280;28;20075;-62
2021/05/18 13:58:55;;;;;;;2.43;0.10;;;13.40;99.90;;;;;;4155252;28;20478;-61
2021/05/18 14:00:56;;;;;;;2.23;0.30;;;13.30;99.90;;;;;;4156391;28;20057;-64
2021/05/18 14:02:59;;;;;;;0.30;0.10;;;13.10;99.90;;;;;;4153683;28;20053;-62
2021/05/18 14:05:02;;;;;;;1.17;0.40;;;13.00;99.90;;;;;;4156833;28;20440;-63
2021/05/18 14:09:35;;;;;;;1.10;0.30;;;12.90;99.90;;;;;;4156570;28;20083;-61
2021/05/18 14:11:36;;;;;;;1.70;0.50;;;12.90;99.90;;;;;;4155178;28;20045;-61
2021/05/18 14:13:40;;;;;;;1.50;0.10;;;12.90;99.90;;;;;;4156873;28;20466;-61
2021/05/18 14:15:42;;;;;;;3.80;0.30;;;12.90;99.90;;;;;;4155139;28;20045;-64
2021/05/18 14:17:43;;;;;;;0.20;0.10;;;12.90;99.90;;;;;;4156323;28;20088;-62
2021/05/18 14:19:44;;;;;;;2.17;0.20;;;12.90;99.90;;;;;;4155057;28;20038;-62
2021/05/18 14:21:46;;;;;;;1.00;0.10;;;12.90;99.90;;;;;;4155781;28;20557;-62
2021/05/18 14:25:53;;;;;;;1.20;0.20;;;12.90;99.90;;;;;;4156071;28;20547;-59
2021/05/18 14:27:54;;;;;;;1.20;0.30;;;13.00;99.90;;;;;;4155497;28;20111;-61
2021/05/18 14:29:55;;;;;;;2.07;0.27;;;13.00;99.90;;;;;;4155744;28;20166;-63
2021/05/18 14:31:56;;;;;;;0.93;0.10;;;13.20;99.90;;;;;;4156137;28;20077;-67
2021/05/18 14:33:57;;;;;;;0.40;0.10;;;13.10;99.90;;;;;;4155474;28;20037;-61
2021/05/18 14:35:59;;;;;;;0.63;0.10;;;13.20;99.90;;;;;;4155319;28;20099;-61
2021/05/18 14:38:24;;;;;;;0.47;0.40;;;13.20;99.90;;;;;;4154395;28;20033;-61
2021/05/18 14:40:30;;;;;;;2.53;0.53;;;13.20;99.90;;;;;;4155177;28;20103;-62
2021/05/18 14:44:51;;;;;;;0.52;0.15;;;13.20;99.90;;;;;;4155430;28;20547;-62
2021/05/18 14:56:05;;;;;;;1.33;0.17;;;13.20;99.90;;;;;;4120383;28;20042;-66
2021/05/18 14:58:06;;;;;;;0.17;0.10;;;13.20;99.90;;;;;;4130825;28;20446;-61
2021/05/18 15:00:07;;;;;;;0.63;0.10;;;13.30;99.90;;;;;;4155138;28;20113;-62
2021/05/18 15:02:09;;;;;;;4.70;0.20;;;13.20;99.90;;;;;;4155638;28;20099;-63
2021/05/18 15:04:10;;;;;;;1.30;0.10;;;13.30;99.90;;;;;;4152638;28;20040;-67
2021/05/18 15:06:11;;;;;;;1.70;0.10;;;13.30;99.90;;;;;;4139919;28;20045;-60
2021/05/18 15:08:12;;;;;;;2.03;0.30;;;13.30;99.90;;;;;;4138815;28;20132;-58
2021/05/18 15:10:13;;;;;;;0.10;0.00;;;13.20;99.90;;;;;;4140275;28;20568;-60
2021/05/18 15:12:14;;;;;;;0.40;0.13;;;13.20;99.90;;;;;;4138043;28;20033;-59
2021/05/18 15:14:16;;;;;;;0.70;0.17;;;13.10;99.90;;;;;;4140302;28;20437;-64
2021/05/18 15:16:17;;;;;;;1.70;0.10;;;13.10;99.90;;;;;;4138159;28;20095;-64
2021/05/18 15:18:18;;;;;;;5.30;0.10;;;13.10;99.90;;;;;;4139211;28;20046;-70
2021/05/18 15:20:19;;;;;;;0.10;0.10;;;13.10;99.90;;;;;;4138584;28;20470;-65
2021/05/18 15:22:21;;;;;;;2.40;0.20;;;13.10;99.90;;;;;;4139110;28;20103;-65
2021/05/18 15:24:22;;;;;;;0.57;0.07;;;13.10;99.90;;;;;;4138649;28;20100;-64
2021/05/18 15:26:23;;;;;;;0.87;0.20;;;13.10;99.90;;;;;;4152811;28;20042;-64
2021/05/18 15:28:24;;;;;;;0.90;0.10;;;13.10;99.90;;;;;;4138405;28;20092;-65
2021/05/18 15:30:25;;;;;;;0.20;0.10;;;13.10;99.90;;;;;;4138837;28;20096;-63
2021/05/18 15:32:27;;;;;;;0.40;0.17;;;13.10;99.90;;;;;;4138904;28;20038;-63
2021/05/18 15:34:28;;;;;;;1.63;0.20;;;13.10;99.90;;;;;;4137919;28;20510;-63
2021/05/18 15:36:29;;;;;;;2.93;0.50;;;13.10;99.90;;;;;;4139095;28;20050;-64
2021/05/18 15:38:37;;;;;;;1.50;0.10;;;13.10;99.90;;;;;;4138061;28;20030;-63
2021/05/18 15:40:39;;;;;;;1.33;0.10;;;13.10;99.90;;;;;;4138530;28;20096;-63
2021/05/18 15:42:40;;;;;;;0.57;0.10;;;13.10;99.90;;;;;;4152262;28;20103;-63
2021/05/18 15:44:41;;;;;;;0.97;0.20;;;13.00;99.90;;;;;;4139719;28;20532;-66
2021/05/18 15:46:44;;;;;;;1.80;0.10;;;13.00;99.90;;;;;;4137922;28;20030;-63
2021/05/18 15:48:45;;;;;;;0.47;0.30;;;12.90;99.90;;;;;;4153503;28;20033;-67
2021/05/18 15:50:46;;;;;;;0.40;0.10;;;12.90;99.90;;;;;;4137418;28;20455;-64
2021/05/18 15:52:47;;;;;;;0.83;0.10;;;12.90;99.90;;;;;;4139461;28;20092;-69
2021/05/18 15:54:49;;;;;;;0.37;0.10;;;12.90;99.90;;;;;;4138002;28;20038;-65
2021/05/18 15:56:51;;;;;;;0.33;0.20;;;12.90;99.90;;;;;;4138514;28;20037;-63